Time;durP1;ratioP1;P1;durP2;ratioP2;P2;SDS_P1;SDS_P2;PMS_P1;PMS_P2;Temp;Humidity;BMP_temperature;BMP_pressure;BME280_temperature;BME280_humidity;BME280_pressure;Samples;Min_cycle;Max_cycle;Signal;HPM_P1;HPM_P2
2022/08/17 00:05:36;;;;;;;;;15.00;14.67;;;;;;;;5442439;23;46917;-96
2022/08/17 00:08:02;;;;;;;;;17.00;15.67;;;;;;;;4949306;28;45459;-96
2022/08/17 00:10:29;;;;;;;;;17.00;15.33;;;;;;;;4955607;28;44759;-96
2022/08/17 00:12:57;;;;;;;;;17.67;16.00;;;;;;;;4956021;28;45351;-96
2022/08/17 00:15:26;;;;;;;;;15.33;14.00;;;;;;;;4958277;28;46725;-96
2022/08/17 00:17:53;;;;;;;;;18.00;15.67;;;;;;;;4962390;28;44704;-96
2022/08/17 00:20:41;;;;;;;;;15.00;10.00;;;;;;;;4961557;28;44787;-96
2022/08/17 00:33:33;;;;;;;;;14.33;13.00;;;;;;;;5014732;28;44869;-96
2022/08/17 00:36:01;;;;;;;;;12.33;12.33;;;;;;;;5018075;28;45486;-96
2022/08/17 00:38:28;;;;;;;;;16.00;13.00;;;;;;;;5015236;28;45327;-96
2022/08/17 00:40:55;;;;;;;;;12.67;12.67;;;;;;;;5016269;28;44722;-96
2022/08/17 00:43:33;;;;;;;;;13.33;12.33;;;;;;;;5014211;28;44734;-96
2022/08/17 00:46:00;;;;;;;;;11.33;11.00;;;;;;;;5012735;28;47143;-96
2022/08/17 00:48:26;;;;;;;;;14.33;13.33;;;;;;;;5018975;28;45272;-96
2022/08/17 00:50:57;;;;;;;;;13.00;13.00;;;;;;;;4997404;28;44814;-96
2022/08/17 00:53:44;;;;;;;;;18.33;16.00;;;;;;;;5040277;22;45319;-96
2022/08/17 00:56:15;;;;;;;;;19.33;14.33;;;;;;;;4998861;28;45639;-96
2022/08/17 00:58:41;;;;;;;;;13.33;12.33;;;;;;;;4995423;28;45412;-96
2022/08/17 01:01:09;;;;;;;;;16.33;15.67;;;;;;;;4973501;28;44718;-96
2022/08/17 01:03:36;;;;;;;;;13.00;13.00;;;;;;;;4991585;28;45320;-96
2022/08/17 01:06:01;;;;;;;;;18.67;16.67;;;;;;;;4991419;28;47443;-96
2022/08/17 01:08:28;;;;;;;;;15.67;15.00;;;;;;;;4993262;28;45394;-96
2022/08/17 01:10:54;;;;;;;;;15.33;14.00;;;;;;;;4994337;28;45102;-96
2022/08/17 01:13:20;;;;;;;;;20.33;15.33;;;;;;;;4991927;28;45413;-96
2022/08/17 01:15:49;;;;;;;;;13.67;13.67;;;;;;;;4993002;28;47482;-95
2022/08/17 01:18:15;;;;;;;;;16.00;16.00;;;;;;;;4993399;28;45070;-96
2022/08/17 01:20:43;;;;;;;;;17.33;16.33;;;;;;;;4994649;28;45342;-96
2022/08/17 01:23:08;;;;;;;;;12.33;12.33;;;;;;;;4994466;28;44895;-96
2022/08/17 01:25:34;;;;;;;;;13.00;11.67;;;;;;;;4993742;28;47406;-96
2022/08/17 01:28:00;;;;;;;;;17.00;14.33;;;;;;;;4997368;28;44674;-96
2022/08/17 01:30:25;;;;;;;;;19.00;15.00;;;;;;;;4990170;28;45342;-96
2022/08/17 01:32:52;;;;;;;;;14.00;13.00;;;;;;;;4992370;28;45249;-96
2022/08/17 01:35:18;;;;;;;;;13.00;13.00;;;;;;;;4998390;28;47230;-96
2022/08/17 01:37:45;;;;;;;;;16.67;14.33;;;;;;;;4995907;28;44819;-96
2022/08/17 01:40:14;;;;;;;;;15.00;13.00;;;;;;;;4999003;28;45283;-96
2022/08/17 01:42:45;;;;;;;;;18.67;15.33;;;;;;;;4994626;28;44908;-96
2022/08/17 01:45:13;;;;;;;;;14.67;14.00;;;;;;;;4978449;28;47712;-96
2022/08/17 01:47:40;;;;;;;;;17.00;15.00;;;;;;;;4997585;28;44796;-96
2022/08/17 01:50:11;;;;;;;;;15.00;14.00;;;;;;;;4996875;28;45286;-96
2022/08/17 01:52:37;;;;;;;;;20.00;17.33;;;;;;;;4995123;28;44873;-96
2022/08/17 01:55:03;;;;;;;;;14.67;13.67;;;;;;;;4996527;28;48095;-96
2022/08/17 01:57:28;;;;;;;;;17.67;15.33;;;;;;;;4995152;28;45252;-95
2022/08/17 01:59:54;;;;;;;;;13.00;13.00;;;;;;;;4996643;28;45453;-95
2022/08/17 02:02:20;;;;;;;;;18.00;18.00;;;;;;;;4998256;28;44795;-96
2022/08/17 02:04:46;;;;;;;;;16.00;16.00;;;;;;;;4996378;28;45656;-96
2022/08/17 02:07:12;;;;;;;;;15.00;14.00;;;;;;;;4994468;28;45458;-95
2022/08/17 02:09:40;;;;;;;;;13.00;13.00;;;;;;;;4982121;28;44950;-96
2022/08/17 02:12:07;;;;;;;;;19.67;18.33;;;;;;;;5001795;28;44855;-96
2022/08/17 02:14:32;;;;;;;;;15.67;14.00;;;;;;;;4998041;28;46217;-96
2022/08/17 02:17:01;;;;;;;;;16.67;15.33;;;;;;;;4995387;28;45331;-96
2022/08/17 02:19:26;;;;;;;;;15.67;15.00;;;;;;;;4983256;28;45305;-96
2022/08/17 02:22:17;;;;;;;;;16.33;13.33;;;;;;;;4999740;28;44938;-96
2022/08/17 02:55:58;;;;;;;;;15.00;14.00;;;;;;;;5597272;23;46307;-96
2022/08/17 02:58:51;;;;;;;;;15.33;12.67;;;;;;;;5003354;28;44683;-96
2022/08/17 03:22:01;;;;;;;;;16.33;16.33;;;;;;;;5202511;22;44793;-96
2022/08/17 03:24:30;;;;;;;;;19.00;14.33;;;;;;;;5042114;28;44813;-96
2022/08/17 03:26:59;;;;;;;;;18.33;15.67;;;;;;;;5041138;28;45540;-96
2022/08/17 03:29:52;;;;;;;;;18.33;15.67;;;;;;;;5042991;28;44718;-96
2022/08/17 03:32:31;;;;;;;;;18.33;16.33;;;;;;;;5041579;28;44864;-96
2022/08/17 03:42:46;;;;;;;;;12.33;12.33;;;;;;;;5032943;28;44925;-96
2022/08/17 04:01:45;;;;;;;;;14.00;13.67;;;;;;;;5829803;22;45113;-96
2022/08/17 04:04:33;;;;;;;;;12.00;12.00;;;;;;;;5030007;28;44833;-96
2022/08/17 06:28:51;;;;;;;;;22.67;19.67;;;;;;;;5037636;28;45632;-88
2022/08/17 06:31:30;;;;;;;;;20.67;19.00;;;;;;;;5035507;28;45491;-87
2022/08/17 06:33:56;;;;;;;;;21.00;17.33;;;;;;;;5016804;28;45433;-86
2022/08/17 06:36:38;;;;;;;;;22.33;19.00;;;;;;;;5035681;28;45276;-87
2022/08/17 06:39:22;;;;;;;;;15.33;15.33;;;;;;;;5034161;28;45710;-88
2022/08/17 06:41:53;;;;;;;;;21.33;20.33;;;;;;;;5035712;28;46594;-89
2022/08/17 06:44:22;;;;;;;;;17.33;17.33;;;;;;;;5035104;28;45438;-87
2022/08/17 06:46:53;;;;;;;;;17.00;16.00;;;;;;;;5055728;28;45480;-88
2022/08/17 06:49:27;;;;;;;;;19.00;16.33;;;;;;;;5054840;28;45308;-88
2022/08/17 06:51:57;;;;;;;;;21.33;17.67;;;;;;;;5037511;28;47372;-88
2022/08/17 06:54:37;;;;;;;;;16.33;16.33;;;;;;;;5053773;28;45382;-88
2022/08/17 06:57:13;;;;;;;;;17.67;17.67;;;;;;;;5055742;28;45309;-88
2022/08/17 06:59:57;;;;;;;;;17.67;16.33;;;;;;;;5055707;28;45363;-87
2022/08/17 07:02:35;;;;;;;;;16.00;16.00;;;;;;;;5057059;28;46495;-87
2022/08/17 07:05:01;;;;;;;;;16.67;16.67;;;;;;;;5055295;28;45835;-87
2022/08/17 07:10:11;;;;;;;;;18.00;16.33;;;;;;;;5055154;28;45385;-88
2022/08/17 07:12:39;;;;;;;;;19.00;18.33;;;;;;;;5054006;28;47964;-88
2022/08/17 07:15:23;;;;;;;;;18.33;16.67;;;;;;;;5052968;28;45390;-89
2022/08/17 07:17:49;;;;;;;;;18.33;17.67;;;;;;;;5034070;28;45572;-89
2022/08/17 07:20:20;;;;;;;;;21.67;19.33;;;;;;;;5036208;28;45845;-89
2022/08/17 07:22:59;;;;;;;;;21.00;18.33;;;;;;;;5037568;28;46061;-88
2022/08/17 07:25:24;;;;;;;;;20.33;18.00;;;;;;;;5054668;28;45327;-90
2022/08/17 07:27:51;;;;;;;;;19.33;17.00;;;;;;;;5037481;28;45444;-87
2022/08/17 07:30:24;;;;;;;;;16.33;15.33;;;;;;;;5054528;28;45436;-88
2022/08/17 07:32:53;;;;;;;;;23.00;17.67;;;;;;;;5037903;28;46344;-90
2022/08/17 07:35:27;;;;;;;;;18.00;18.00;;;;;;;;5053135;28;45505;-89
2022/08/17 07:38:08;;;;;;;;;19.00;18.33;;;;;;;;5037308;28;45481;-91
2022/08/17 07:40:34;;;;;;;;;18.67;18.00;;;;;;;;5037388;28;45581;-85
2022/08/17 07:43:01;;;;;;;;;18.33;15.67;;;;;;;;5037708;28;46412;-83
2022/08/17 07:48:18;;;;;;;;;15.00;14.67;;;;;;;;5036472;28;45275;-88
2022/08/17 07:50:44;;;;;;;;;14.67;14.00;;;;;;;;5042599;28;45555;-87
2022/08/17 07:53:21;;;;;;;;;14.67;13.67;;;;;;;;5052173;28;45563;-87
2022/08/17 07:55:46;;;;;;;;;18.67;17.33;;;;;;;;5038031;28;45798;-88
2022/08/17 07:58:19;;;;;;;;;19.67;16.33;;;;;;;;5028714;28;45441;-88
2022/08/17 08:00:45;;;;;;;;;15.00;15.00;;;;;;;;5038091;28;45895;-88
2022/08/17 08:03:30;;;;;;;;;16.67;15.67;;;;;;;;5037796;28;47698;-89
2022/08/17 08:05:59;;;;;;;;;17.00;16.00;;;;;;;;5027976;28;45482;-89
2022/08/17 08:08:24;;;;;;;;;14.67;14.67;;;;;;;;5035913;28;45290;-88
2022/08/17 08:11:00;;;;;;;;;20.00;18.67;;;;;;;;5035069;28;45940;-87
2022/08/17 08:13:29;;;;;;;;;13.33;13.00;;;;;;;;5035582;28;45537;-88
2022/08/17 08:16:10;;;;;;;;;16.00;15.00;;;;;;;;5036075;28;45405;-89
2022/08/17 08:18:39;;;;;;;;;13.33;13.33;;;;;;;;5051305;28;45496;-89
2022/08/17 08:21:07;;;;;;;;;15.67;15.67;;;;;;;;5037835;28;45366;-89
2022/08/17 08:23:35;;;;;;;;;17.00;15.33;;;;;;;;5055109;28;45314;-89
2022/08/17 08:26:14;;;;;;;;;15.67;15.67;;;;;;;;5053634;28;45499;-89
2022/08/17 08:28:59;;;;;;;;;16.67;14.67;;;;;;;;5033527;28;45446;-89
2022/08/17 08:31:39;;;;;;;;;17.33;15.67;;;;;;;;5034486;28;45520;-87
2022/08/17 08:34:12;;;;;;;;;16.00;16.00;;;;;;;;5033552;28;47590;-88
2022/08/17 08:36:56;;;;;;;;;18.33;18.00;;;;;;;;5038331;28;45456;-87
2022/08/17 08:39:37;;;;;;;;;16.67;16.67;;;;;;;;5041678;28;45334;-87
2022/08/17 08:42:22;;;;;;;;;17.67;17.67;;;;;;;;5040747;28;45377;-88
2022/08/17 08:44:57;;;;;;;;;18.67;16.00;;;;;;;;5011745;28;46623;-88
2022/08/17 08:47:22;;;;;;;;;19.67;15.67;;;;;;;;5039451;28;45622;-88
2022/08/17 08:49:54;;;;;;;;;15.00;15.00;;;;;;;;5038561;28;45482;-87
2022/08/17 08:52:29;;;;;;;;;23.00;19.33;;;;;;;;5044198;28;45660;-87
2022/08/17 08:55:15;;;;;;;;;17.00;15.67;;;;;;;;5042944;28;45561;-88
2022/08/17 08:57:58;;;;;;;;;18.00;18.00;;;;;;;;5051741;28;45561;-87
2022/08/17 09:00:25;;;;;;;;;19.33;18.00;;;;;;;;5038878;28;45459;-84
2022/08/17 09:02:50;;;;;;;;;24.33;20.67;;;;;;;;5036186;28;45521;-86
2022/08/17 09:05:30;;;;;;;;;15.25;14.00;;;;;;;;5050559;28;46120;-85
2022/08/17 09:08:03;;;;;;;;;21.00;19.00;;;;;;;;5037025;28;47980;-85
2022/08/17 09:10:48;;;;;;;;;16.00;15.67;;;;;;;;5055871;28;45464;-87
2022/08/17 09:13:13;;;;;;;;;17.00;17.00;;;;;;;;5033958;28;45596;-86
2022/08/17 09:15:44;;;;;;;;;19.50;16.75;;;;;;;;5035378;28;47118;-86
2022/08/17 09:18:22;;;;;;;;;18.33;18.33;;;;;;;;5044181;28;45540;-86
2022/08/17 09:20:55;;;;;;;;;18.33;17.00;;;;;;;;5037811;28;45525;-86
2022/08/17 09:23:32;;;;;;;;;18.33;16.33;;;;;;;;5044426;28;45650;-86
2022/08/17 09:26:15;;;;;;;;;18.33;16.67;;;;;;;;5067979;28;46311;-86
2022/08/17 09:28:45;;;;;;;;;16.00;15.33;;;;;;;;5071517;28;45404;-86
2022/08/17 09:31:14;;;;;;;;;17.00;16.00;;;;;;;;5064763;28;45350;-86
2022/08/17 09:33:42;;;;;;;;;21.00;18.67;;;;;;;;5057577;28;45524;-86
2022/08/17 09:36:15;;;;;;;;;18.00;16.67;;;;;;;;5076727;28;46589;-86
2022/08/17 09:38:56;;;;;;;;;20.00;19.00;;;;;;;;5047839;28;45849;-85
2022/08/17 09:41:27;;;;;;;;;18.33;18.00;;;;;;;;5046196;28;45412;-85
2022/08/17 09:44:05;;;;;;;;;16.67;15.00;;;;;;;;5075869;28;45404;-85
2022/08/17 09:46:36;;;;;;;;;20.00;17.00;;;;;;;;5064558;28;46171;-85
2022/08/17 09:49:27;;;;;;;;;16.67;13.33;;;;;;;;5053803;28;45511;-86
2022/08/17 09:52:15;;;;;;;;;16.67;16.33;;;;;;;;5058023;28;45377;-86
2022/08/17 09:54:41;;;;;;;;;16.00;14.67;;;;;;;;5056782;28;45530;-86
2022/08/17 09:57:06;;;;;;;;;15.33;14.33;;;;;;;;5075520;28;46185;-86
2022/08/17 09:59:57;;;;;;;;;16.33;15.00;;;;;;;;5056883;28;45746;-86
2022/08/17 10:02:39;;;;;;;;;18.33;18.00;;;;;;;;4944577;28;45506;-86
2022/08/17 10:05:20;;;;;;;;;22.00;20.67;;;;;;;;4972063;28;45635;-86
2022/08/17 10:07:54;;;;;;;;;20.00;18.67;;;;;;;;4966329;28;46183;-86
2022/08/17 10:10:20;;;;;;;;;22.67;19.67;;;;;;;;4971480;28;45393;-86
2022/08/17 10:12:49;;;;;;;;;20.33;20.00;;;;;;;;4966402;28;45550;-86
2022/08/17 10:15:17;;;;;;;;;24.67;20.00;;;;;;;;4953903;28;45499;-86
2022/08/17 10:18:02;;;;;;;;;19.33;18.00;;;;;;;;4954282;28;46761;-86
2022/08/17 10:20:35;;;;;;;;;18.33;18.33;;;;;;;;4937525;28;45876;-85
2022/08/17 10:26:14;;;;;;;;;17.67;16.67;;;;;;;;4942892;28;45542;-85
2022/08/17 10:28:48;;;;;;;;;18.33;14.67;;;;;;;;4913596;28;46235;-92
2022/08/17 10:31:22;;;;;;;;;21.33;18.33;;;;;;;;4944840;28;45472;-88
2022/08/17 10:33:54;;;;;;;;;16.33;15.00;;;;;;;;4923507;28;45724;-87
2022/08/17 10:36:28;;;;;;;;;19.00;18.00;;;;;;;;4943818;28;45493;-88
2022/08/17 10:39:07;;;;;;;;;16.67;15.00;;;;;;;;4966972;28;47562;-88
2022/08/17 10:41:39;;;;;;;;;18.33;17.00;;;;;;;;5046320;28;45421;-90
2022/08/17 10:44:04;;;;;;;;;20.67;17.67;;;;;;;;5025006;28;45350;-84
2022/08/17 10:46:38;;;;;;;;;20.33;19.33;;;;;;;;5044570;28;45364;-89
2022/08/17 10:49:16;;;;;;;;;22.00;19.00;;;;;;;;5038783;28;45514;-88
2022/08/17 10:51:42;;;;;;;;;19.33;16.67;;;;;;;;5023057;28;45618;-90
2022/08/17 10:54:22;;;;;;;;;18.00;17.67;;;;;;;;5033089;28;45460;-90
2022/08/17 10:56:49;;;;;;;;;18.33;18.00;;;;;;;;5033785;28;45540;-87
2022/08/17 10:59:33;;;;;;;;;15.67;14.67;;;;;;;;5035485;28;45465;-89
2022/08/17 11:02:11;;;;;;;;;23.33;20.67;;;;;;;;5037671;28;45454;-88
2022/08/17 11:04:46;;;;;;;;;20.67;20.00;;;;;;;;5023128;28;45421;-89
2022/08/17 11:07:14;;;;;;;;;16.33;15.00;;;;;;;;5025210;28;45355;-88
2022/08/17 11:09:42;;;;;;;;;18.33;17.67;;;;;;;;5030900;28;47589;-88
2022/08/17 11:12:14;;;;;;;;;16.67;15.33;;;;;;;;5037268;28;45370;-91
2022/08/17 11:14:42;;;;;;;;;19.33;19.33;;;;;;;;5035272;28;45413;-89
2022/08/17 11:17:08;;;;;;;;;20.00;18.33;;;;;;;;5037550;28;45420;-90
2022/08/17 11:19:33;;;;;;;;;17.00;16.75;;;;;;;;5035119;28;48064;-89
2022/08/17 11:22:01;;;;;;;;;18.50;17.50;;;;;;;;5022388;28;45426;-90
2022/08/17 11:24:45;;;;;;;;;19.67;17.67;;;;;;;;5027682;28;45679;-89
2022/08/17 11:27:21;;;;;;;;;18.33;17.00;;;;;;;;5045207;28;45538;-89
2022/08/17 11:29:51;;;;;;;;;16.00;14.67;;;;;;;;5034717;28;46332;-89
2022/08/17 11:32:29;;;;;;;;;21.00;19.67;;;;;;;;5034504;28;45547;-89
2022/08/17 11:35:12;;;;;;;;;17.33;17.33;;;;;;;;5033862;28;45408;-89
2022/08/17 11:37:43;;;;;;;;;20.67;20.00;;;;;;;;5034661;28;45562;-89
2022/08/17 11:40:09;;;;;;;;;19.00;19.00;;;;;;;;5034870;28;45700;-89
2022/08/17 11:42:43;;;;;;;;;20.25;19.00;;;;;;;;5035814;28;45470;-90
2022/08/17 11:45:08;;;;;;;;;24.33;19.33;;;;;;;;5033376;28;45523;-89
2022/08/17 11:53:36;;;;;;;;;27.33;23.00;;;;;;;;5028243;28;45311;-94
2022/08/17 11:56:02;;;;;;;;;27.00;24.67;;;;;;;;5034916;28;45347;-91
2022/08/17 11:58:39;;;;;;;;;21.33;21.00;;;;;;;;5035852;28;45537;-91
2022/08/17 12:01:25;;;;;;;;;19.67;19.33;;;;;;;;5036327;28;45407;-92
2022/08/17 12:03:55;;;;;;;;;17.67;17.67;;;;;;;;5036291;28;45514;-92
2022/08/17 12:06:40;;;;;;;;;22.33;19.67;;;;;;;;5036045;28;45591;-93
2022/08/17 12:09:19;;;;;;;;;20.00;19.67;;;;;;;;5036578;28;45552;-92
2022/08/17 12:12:02;;;;;;;;;18.67;17.67;;;;;;;;5038472;28;48033;-92
2022/08/17 12:14:28;;;;;;;;;16.67;16.67;;;;;;;;5044294;28;45366;-92
2022/08/17 12:17:11;;;;;;;;;19.33;18.00;;;;;;;;5044824;28;45384;-89
2022/08/17 12:19:37;;;;;;;;;23.33;20.00;;;;;;;;5044067;28;45410;-92
2022/08/17 12:22:07;;;;;;;;;19.33;15.67;;;;;;;;5042559;28;46052;-94
2022/08/17 12:24:32;;;;;;;;;15.67;14.00;;;;;;;;5045602;28;45945;-94
2022/08/17 12:26:59;;;;;;;;;21.67;20.00;;;;;;;;5053418;28;45381;-90
2022/08/17 12:29:24;;;;;;;;;18.00;17.00;;;;;;;;5036139;28;45488;-91
2022/08/17 12:31:51;;;;;;;;;17.00;16.33;;;;;;;;5038541;28;47351;-89
2022/08/17 12:34:16;;;;;;;;;19.00;17.33;;;;;;;;5039587;28;45354;-96
2022/08/17 12:36:41;;;;;;;;;21.00;19.33;;;;;;;;5039390;28;45417;-94
2022/08/17 12:39:07;;;;;;;;;15.67;15.67;;;;;;;;5037226;28;45570;-96
2022/08/17 12:41:33;;;;;;;;;16.33;15.67;;;;;;;;5036851;28;47573;-95
2022/08/17 12:44:03;;;;;;;;;17.00;17.00;;;;;;;;5037217;28;45425;-95
2022/08/17 12:46:43;;;;;;;;;19.33;19.00;;;;;;;;5023406;28;45288;-95
2022/08/17 12:49:20;;;;;;;;;19.00;19.00;;;;;;;;5027317;28;45196;-96
2022/08/17 12:51:45;;;;;;;;;16.00;15.33;;;;;;;;5047468;28;46356;-96
2022/08/17 12:56:46;;;;;;;;;16.67;16.33;;;;;;;;5091922;22;45959;-96
2022/08/17 12:59:12;;;;;;;;;15.33;15.00;;;;;;;;5030869;28;45608;-96
2022/08/17 13:01:40;;;;;;;;;17.00;17.00;;;;;;;;5032086;28;46062;-96
2022/08/17 13:04:06;;;;;;;;;18.67;18.67;;;;;;;;5064577;22;45271;-94
2022/08/17 13:06:32;;;;;;;;;17.00;17.00;;;;;;;;5002592;28;45310;-95
2022/08/17 13:09:11;;;;;;;;;16.00;14.00;;;;;;;;5018281;28;45461;-95
2022/08/17 13:11:45;;;;;;;;;17.00;16.00;;;;;;;;4999748;28;47653;-91
2022/08/17 13:14:10;;;;;;;;;15.67;15.00;;;;;;;;5014706;28;45434;-92
2022/08/17 13:16:35;;;;;;;;;16.00;16.00;;;;;;;;4990393;28;45610;-93
2022/08/17 13:19:05;;;;;;;;;14.33;14.33;;;;;;;;5008990;28;45533;-92
2022/08/17 13:21:32;;;;;;;;;15.00;15.00;;;;;;;;4995016;28;47004;-93
2022/08/17 13:23:57;;;;;;;;;12.33;12.33;;;;;;;;4995676;28;45551;-93
2022/08/17 13:26:33;;;;;;;;;20.33;19.33;;;;;;;;5012916;28;45466;-93
2022/08/17 13:28:59;;;;;;;;;13.33;13.00;;;;;;;;5013240;28;45577;-93
2022/08/17 13:31:26;;;;;;;;;15.00;13.67;;;;;;;;4995591;28;47421;-93
2022/08/17 13:34:10;;;;;;;;;33.00;28.00;;;;;;;;4996924;28;45799;-93
2022/08/17 13:36:35;;;;;;;;;50.00;42.00;;;;;;;;4999154;28;45460;-92
2022/08/17 13:39:13;;;;;;;;;39.50;33.00;;;;;;;;4998176;28;45366;-92
2022/08/17 13:41:38;;;;;;;;;66.25;54.25;;;;;;;;4998055;28;47490;-94
2022/08/17 13:44:25;;;;;;;;;29.00;24.67;;;;;;;;5015691;28;45300;-92
2022/08/17 13:46:51;;;;;;;;;26.00;23.00;;;;;;;;5000381;28;45528;-93
2022/08/17 13:49:18;;;;;;;;;39.75;33.25;;;;;;;;5005137;28;45354;-94
2022/08/17 13:51:44;;;;;;;;;51.00;41.00;;;;;;;;4990950;28;48282;-93
2022/08/17 13:54:19;;;;;;;;;15.67;13.67;;;;;;;;4996689;28;45836;-93
2022/08/17 13:56:54;;;;;;;;;15.00;12.67;;;;;;;;5015342;28;45392;-92
2022/08/17 13:59:28;;;;;;;;;17.67;16.33;;;;;;;;4998084;28;45391;-92
2022/08/17 14:01:53;;;;;;;;;17.67;16.33;;;;;;;;5015964;28;46410;-92
2022/08/17 14:04:21;;;;;;;;;11.00;9.67;;;;;;;;4994880;28;45498;-92
2022/08/17 14:07:02;;;;;;;;;15.00;14.67;;;;;;;;4997048;28;45434;-91
2022/08/17 14:09:38;;;;;;;;;25.67;25.67;;;;;;;;4997254;28;45439;-93
2022/08/17 14:12:05;;;;;;;;;32.00;29.00;;;;;;;;4980005;28;48204;-91
2022/08/17 14:14:30;;;;;;;;;53.00;42.00;;;;;;;;4995983;28;45492;-92
2022/08/17 14:16:56;;;;;;;;;23.33;18.67;;;;;;;;4988304;28;45635;-91
2022/08/17 14:19:21;;;;;;;;;18.00;15.67;;;;;;;;5013311;28;45387;-92
2022/08/17 14:21:47;;;;;;;;;53.25;42.00;;;;;;;;4996870;28;47186;-91
2022/08/17 14:24:31;;;;;;;;;44.00;36.00;;;;;;;;4997044;28;45684;-91
2022/08/17 14:26:58;;;;;;;;;18.00;15.67;;;;;;;;5001961;28;45466;-91
2022/08/17 14:29:26;;;;;;;;;24.67;24.67;;;;;;;;5018084;28;45533;-90
2022/08/17 14:31:51;;;;;;;;;116.67;108.33;;;;;;;;5000357;28;45949;-88
2022/08/17 14:34:17;;;;;;;;;335.67;312.33;;;;;;;;5020115;28;45360;-93
2022/08/17 14:36:43;;;;;;;;;192.50;174.75;;;;;;;;5022836;28;45536;-86
2022/08/17 14:39:09;;;;;;;;;98.33;93.00;;;;;;;;4996867;28;45570;-84
2022/08/17 14:41:35;;;;;;;;;66.50;54.25;;;;;;;;5014927;28;45547;-87
2022/08/17 14:44:00;;;;;;;;;43.50;35.25;;;;;;;;5014950;28;45320;-86
2022/08/17 14:46:26;;;;;;;;;33.75;29.75;;;;;;;;5015296;28;45415;-85
2022/08/17 14:48:52;;;;;;;;;22.00;20.00;;;;;;;;5013672;28;45505;-84
2022/08/17 14:51:19;;;;;;;;;24.00;24.00;;;;;;;;5014654;28;46217;-90
2022/08/17 14:53:44;;;;;;;;;14.00;14.00;;;;;;;;4996851;28;45759;-89
2022/08/17 14:56:10;;;;;;;;;13.33;13.33;;;;;;;;4997666;28;45511;-90
2022/08/17 14:58:35;;;;;;;;;15.67;15.00;;;;;;;;5011048;28;45404;-88
2022/08/17 15:01:00;;;;;;;;;9.00;9.00;;;;;;;;4993542;28;46400;-89
2022/08/17 15:03:25;;;;;;;;;12.33;10.00;;;;;;;;5003127;28;45326;-89
2022/08/17 15:05:51;;;;;;;;;14.33;12.00;;;;;;;;5014013;28;45550;-90
2022/08/17 15:08:16;;;;;;;;;12.67;10.67;;;;;;;;5013611;28;45494;-89
2022/08/17 15:10:41;;;;;;;;;12.67;11.67;;;;;;;;4995460;28;48068;-89
2022/08/17 15:13:26;;;;;;;;;14.67;14.67;;;;;;;;4996547;28;45507;-89
2022/08/17 15:15:51;;;;;;;;;47.25;39.00;;;;;;;;5013581;28;45462;-89
2022/08/17 15:18:17;;;;;;;;;68.25;58.25;;;;;;;;5013933;28;45509;-90
2022/08/17 15:20:43;;;;;;;;;234.75;217.75;;;;;;;;4995825;28;48030;-89
2022/08/17 15:23:16;;;;;;;;;28.00;26.25;;;;;;;;5014014;28;45431;-89
2022/08/17 15:25:42;;;;;;;;;89.67;84.33;;;;;;;;5012405;28;45441;-91
2022/08/17 15:28:08;;;;;;;;;30.00;27.00;;;;;;;;5014689;28;45538;-89
2022/08/17 15:30:33;;;;;;;;;31.75;29.00;;;;;;;;4995783;28;47320;-90
2022/08/17 15:32:59;;;;;;;;;23.00;20.00;;;;;;;;5014387;28;45705;-90
2022/08/17 15:35:27;;;;;;;;;14.33;14.33;;;;;;;;4995562;28;45406;-90
2022/08/17 15:37:52;;;;;;;;;19.33;17.33;;;;;;;;4996722;28;45434;-89
2022/08/17 15:40:18;;;;;;;;;19.67;17.67;;;;;;;;4995511;28;45458;-89
2022/08/17 15:42:43;;;;;;;;;21.00;21.00;;;;;;;;5013985;28;45373;-90
2022/08/17 15:45:09;;;;;;;;;34.75;31.75;;;;;;;;5013565;28;45285;-88
2022/08/17 15:47:35;;;;;;;;;25.33;25.33;;;;;;;;4996856;28;45345;-89
2022/08/17 15:50:04;;;;;;;;;12.00;12.00;;;;;;;;4995515;28;48174;-89
2022/08/17 15:52:29;;;;;;;;;15.33;15.33;;;;;;;;5013851;28;45371;-89
2022/08/17 15:54:56;;;;;;;;;16.00;15.67;;;;;;;;4994970;28;45478;-88
2022/08/17 15:57:23;;;;;;;;;12.33;12.33;;;;;;;;4995970;28;45387;-89
2022/08/17 15:59:48;;;;;;;;;10.00;10.00;;;;;;;;5013757;28;45530;-89
2022/08/17 16:02:21;;;;;;;;;12.33;11.67;;;;;;;;4984769;28;45640;-89
2022/08/17 16:04:47;;;;;;;;;19.33;17.67;;;;;;;;4991483;28;45455;-89
2022/08/17 16:07:13;;;;;;;;;20.67;20.67;;;;;;;;4988666;28;45546;-89
2022/08/17 16:09:38;;;;;;;;;16.67;14.33;;;;;;;;4995666;28;47954;-89
2022/08/17 16:12:07;;;;;;;;;17.00;14.33;;;;;;;;5012481;28;45365;-90
2022/08/17 16:14:32;;;;;;;;;12.33;12.33;;;;;;;;4995513;28;45630;-89
2022/08/17 16:16:58;;;;;;;;;11.33;11.33;;;;;;;;5013113;28;45805;-88
2022/08/17 16:19:23;;;;;;;;;14.67;12.33;;;;;;;;4988331;28;47444;-89
2022/08/17 16:21:48;;;;;;;;;12.67;11.33;;;;;;;;4990416;28;45525;-88
2022/08/17 16:24:13;;;;;;;;;15.33;15.33;;;;;;;;4995804;28;45489;-89
2022/08/17 16:26:38;;;;;;;;;9.67;8.67;;;;;;;;5013897;28;45487;-88
2022/08/17 16:29:05;;;;;;;;;7.67;7.00;;;;;;;;4995996;28;47194;-89
2022/08/17 16:31:31;;;;;;;;;8.00;8.00;;;;;;;;4995509;28;45380;-89
2022/08/17 16:33:57;;;;;;;;;9.67;7.00;;;;;;;;4996018;28;45572;-89
2022/08/17 16:36:22;;;;;;;;;9.67;7.00;;;;;;;;5016145;28;45473;-89
2022/08/17 16:38:47;;;;;;;;;7.33;7.33;;;;;;;;4996878;28;47415;-89
2022/08/17 16:41:38;;;;;;;;;5.00;5.00;;;;;;;;5004390;28;46794;-89
2022/08/17 16:43:58;;;;;;;;;7.33;7.00;;;;;;;;5010069;28;45352;-89
2022/08/17 16:46:23;;;;;;;;;8.00;8.00;;;;;;;;5006255;28;45348;-89
2022/08/17 16:48:49;;;;;;;;;8.00;6.67;;;;;;;;4995152;28;47899;-89
2022/08/17 16:51:14;;;;;;;;;9.00;8.67;;;;;;;;4995704;28;45583;-89
2022/08/17 16:53:39;;;;;;;;;11.00;10.00;;;;;;;;5013952;28;46057;-90
2022/08/17 16:56:06;;;;;;;;;10.67;10.67;;;;;;;;5014494;28;45914;-89
2022/08/17 16:58:31;;;;;;;;;6.67;6.67;;;;;;;;5008787;28;46247;-89
2022/08/17 17:00:58;;;;;;;;;9.00;6.67;;;;;;;;5014008;28;45367;-92
2022/08/17 17:03:24;;;;;;;;;5.67;5.67;;;;;;;;5013913;28;45461;-92
2022/08/17 17:05:49;;;;;;;;;6.00;6.00;;;;;;;;5013229;28;45345;-89
2022/08/17 17:08:29;;;;;;;;;6.00;6.00;;;;;;;;5010151;28;46278;-90
2022/08/17 17:10:55;;;;;;;;;6.33;5.67;;;;;;;;4994239;28;45805;-89
2022/08/17 17:13:39;;;;;;;;;4.00;4.00;;;;;;;;5019201;28;45402;-95
2022/08/17 17:16:04;;;;;;;;;6.33;5.00;;;;;;;;5020254;28;46130;-92
2022/08/17 17:18:41;;;;;;;;;11.33;11.33;;;;;;;;5002645;28;46230;-93
2022/08/17 17:21:11;;;;;;;;;6.00;6.00;;;;;;;;5022246;28;45315;-92
2022/08/17 17:23:41;;;;;;;;;7.00;6.00;;;;;;;;5022322;28;46038;-90
2022/08/17 17:26:12;;;;;;;;;5.67;5.33;;;;;;;;5023591;28;45310;-96
2022/08/17 17:28:56;;;;;;;;;7.33;6.33;;;;;;;;5007385;28;48362;-96
2022/08/17 17:31:24;;;;;;;;;7.33;5.33;;;;;;;;5025244;28;45318;-95
2022/08/17 17:33:55;;;;;;;;;5.33;5.00;;;;;;;;5018961;28;45327;-95
2022/08/17 17:36:23;;;;;;;;;8.33;5.33;;;;;;;;5001321;28;45407;-91
2022/08/17 17:38:51;;;;;;;;;5.33;5.00;;;;;;;;4999663;28;46173;-94
2022/08/17 17:41:20;;;;;;;;;6.00;6.00;;;;;;;;4999316;28;45641;-92
2022/08/17 17:43:48;;;;;;;;;11.00;8.67;;;;;;;;5000289;28;45494;-93
2022/08/17 17:46:28;;;;;;;;;10.33;9.00;;;;;;;;5001769;28;45252;-94
2022/08/17 17:48:55;;;;;;;;;8.00;8.00;;;;;;;;5002752;28;46542;-90
2022/08/17 17:51:40;;;;;;;;;8.00;8.00;;;;;;;;5015476;28;45778;-86
2022/08/17 17:54:11;;;;;;;;;8.00;8.00;;;;;;;;5002300;28;45690;-91
2022/08/17 17:56:50;;;;;;;;;10.33;8.00;;;;;;;;5007367;28;45437;-96
2022/08/17 17:59:27;;;;;;;;;9.33;9.33;;;;;;;;5008617;28;47458;-93
2022/08/17 18:02:11;;;;;;;;;8.67;8.67;;;;;;;;5016441;28;45387;-95
2022/08/17 18:04:43;;;;;;;;;8.00;8.00;;;;;;;;4995437;28;45845;-95
2022/08/17 18:07:14;;;;;;;;;9.00;9.00;;;;;;;;4997427;28;45535;-95
2022/08/17 18:09:39;;;;;;;;;9.67;9.67;;;;;;;;4993958;28;47352;-95
2022/08/17 18:12:20;;;;;;;;;10.00;8.67;;;;;;;;4996973;28;45940;-96
2022/08/17 18:15:01;;;;;;;;;10.67;9.00;;;;;;;;5000458;28;45390;-95
2022/08/17 18:17:28;;;;;;;;;9.67;9.67;;;;;;;;4993315;28;45399;-94
2022/08/17 18:19:54;;;;;;;;;9.67;9.67;;;;;;;;4992688;28;47690;-91
2022/08/17 18:22:20;;;;;;;;;10.67;10.00;;;;;;;;4997362;28;45353;-92
2022/08/17 18:24:48;;;;;;;;;8.00;8.00;;;;;;;;4994559;28;45483;-93
2022/08/17 18:27:19;;;;;;;;;7.33;7.33;;;;;;;;4996245;28;45343;-92
2022/08/17 18:29:45;;;;;;;;;10.67;9.00;;;;;;;;4993880;28;47189;-92
2022/08/17 18:32:26;;;;;;;;;9.67;9.33;;;;;;;;4993745;28;45798;-88
2022/08/17 18:35:00;;;;;;;;;6.67;6.67;;;;;;;;4995224;28;45384;-88
2022/08/17 18:37:28;;;;;;;;;7.33;7.00;;;;;;;;4993233;28;45434;-91
2022/08/17 18:39:53;;;;;;;;;8.00;8.00;;;;;;;;4993427;28;45955;-89
2022/08/17 18:42:27;;;;;;;;;10.00;9.00;;;;;;;;4993576;28;45494;-92
2022/08/17 18:44:53;;;;;;;;;8.67;7.33;;;;;;;;4993449;28;45566;-89
2022/08/17 18:47:20;;;;;;;;;8.33;8.00;;;;;;;;4994432;28;45583;-92
2022/08/17 18:49:57;;;;;;;;;9.00;8.00;;;;;;;;4994821;28;45522;-86
2022/08/17 18:52:28;;;;;;;;;8.00;8.00;;;;;;;;4985191;28;45517;-88